createdAt,value
2022-12-05T00:01:23.235Z,0.54
2022-12-05T00:03:54.416Z,0.49
2022-12-05T00:06:22.284Z,0.48
2022-12-05T00:08:49.940Z,0.52
2022-12-05T00:11:19.586Z,0.58
2022-12-05T00:13:48.309Z,0.68
2022-12-05T00:16:17.706Z,0.69
2022-12-05T00:18:44.468Z,0.66
2022-12-05T00:21:17.040Z,0.66
2022-12-05T00:23:43.808Z,0.67
2022-12-05T00:26:11.477Z,0.65
2022-12-05T00:28:38.679Z,0.62
2022-12-05T00:31:07.548Z,0.62
2022-12-05T00:33:34.418Z,0.63
2022-12-05T00:36:07.003Z,0.71
2022-12-05T00:38:34.205Z,0.67
2022-12-05T00:41:10.419Z,0.60
2022-12-05T00:43:37.588Z,0.47
2022-12-05T00:46:08.400Z,0.50
2022-12-05T00:48:35.136Z,0.44
2022-12-05T00:51:11.040Z,0.44
2022-12-05T00:53:38.261Z,0.48
2022-12-05T00:56:08.540Z,0.53
2022-12-05T00:58:35.887Z,0.50
2022-12-05T01:01:15.395Z,0.58
2022-12-05T01:03:43.238Z,0.58
2022-12-05T01:06:10.802Z,0.55
2022-12-05T01:08:37.493Z,0.45
2022-12-05T01:11:06.407Z,0.41
2022-12-05T01:13:33.881Z,0.25
2022-12-05T01:16:01.108Z,0.27
2022-12-05T01:18:28.801Z,0.31
2022-12-05T01:20:55.566Z,0.34
2022-12-05T01:23:23.160Z,0.34
2022-12-05T01:25:52.441Z,0.32
2022-12-05T01:28:19.711Z,0.39
2022-12-05T01:30:48.609Z,0.38
2022-12-05T01:33:17.151Z,0.34
2022-12-05T01:35:44.632Z,0.37
2022-12-05T01:38:13.081Z,0.38
2022-12-05T01:40:40.745Z,0.37
2022-12-05T01:43:25.576Z,0.31
2022-12-05T01:45:52.329Z,0.30
2022-12-05T01:48:23.839Z,0.31
2022-12-05T01:50:51.135Z,0.23
2022-12-05T01:53:19.008Z,0.19
2022-12-05T01:55:48.598Z,0.22
2022-12-05T01:58:16.096Z,0.18
2022-12-05T02:00:44.047Z,0.26
2022-12-05T02:03:18.480Z,0.35
2022-12-05T02:05:48.767Z,0.40
2022-12-05T02:08:16.153Z,0.40
2022-12-05T02:10:49.708Z,0.40
2022-12-05T02:13:52.068Z,0.48
2022-12-05T02:16:37.036Z,0.44
2022-12-05T02:19:31.704Z,0.42
2022-12-05T02:22:05.872Z,0.21
2022-12-05T02:24:47.789Z,0.16
2022-12-05T02:27:29.817Z,0.02
2022-12-05T02:30:05.478Z,0.00
2022-12-05T02:33:08.971Z,-0.04
2022-12-05T02:35:38.704Z,-0.09
2022-12-05T02:38:21.733Z,-0.13
2022-12-05T02:41:17.056Z,-0.10
2022-12-05T02:44:14.164Z,-0.17
2022-12-05T02:46:42.801Z,-0.13
2022-12-05T02:49:13.162Z,-0.19
2022-12-05T02:51:47.174Z,-0.04
2022-12-05T02:54:19.654Z,0.05
2022-12-05T02:56:47.308Z,0.09
2022-12-05T02:59:18.491Z,0.00
2022-12-05T03:01:49.849Z,0.22
2022-12-05T03:04:19.083Z,0.22
2022-12-05T03:06:51.141Z,0.20
2022-12-05T03:09:26.440Z,0.27
2022-12-05T03:12:01.736Z,0.17
2022-12-05T03:14:40.710Z,0.12
2022-12-05T03:17:13.581Z,0.16
2022-12-05T03:19:52.243Z,0.15
2022-12-05T03:22:26.464Z,0.09
2022-12-05T03:24:53.800Z,0.10
2022-12-05T03:27:26.651Z,0.17
2022-12-05T03:29:58.506Z,0.12
2022-12-05T03:32:53.668Z,0.16
2022-12-05T03:35:29.340Z,0.24
2022-12-05T03:38:20.834Z,0.27
2022-12-05T03:41:07.833Z,0.31
2022-12-05T03:43:56.342Z,0.28
2022-12-05T03:46:32.733Z,0.25
2022-12-05T03:49:15.748Z,0.22
2022-12-05T03:51:59.210Z,0.23
2022-12-05T03:54:49.614Z,0.27
2022-12-05T03:57:37.617Z,0.29
2022-12-05T04:00:09.797Z,0.38
2022-12-05T04:02:52.423Z,0.41
2022-12-05T04:05:41.542Z,0.40
2022-12-05T04:08:17.900Z,0.38
2022-12-05T04:10:51.021Z,0.28
2022-12-05T04:13:29.763Z,0.34
2022-12-05T04:16:23.285Z,0.27
2022-12-05T04:19:05.244Z,0.38
2022-12-05T04:21:39.916Z,0.29
2022-12-05T04:24:34.660Z,0.22
2022-12-05T04:27:12.353Z,0.18
2022-12-05T04:30:10.447Z,0.22
2022-12-05T04:32:52.307Z,0.20
2022-12-05T04:35:34.594Z,0.18
2022-12-05T04:38:10.650Z,0.18
2022-12-05T04:41:05.526Z,0.27
2022-12-05T04:43:36.972Z,0.18
2022-12-05T04:46:08.246Z,0.21
2022-12-05T04:48:39.236Z,0.24
2022-12-05T04:51:09.424Z,0.28
2022-12-05T04:53:36.459Z,0.35
2022-12-05T04:56:04.891Z,0.40
2022-12-05T04:58:32.449Z,0.39
2022-12-05T05:01:20.100Z,0.32
2022-12-05T05:03:55.667Z,0.38
2022-12-05T05:06:22.334Z,0.35
2022-12-05T05:08:54.733Z,0.36
2022-12-05T05:11:22.984Z,0.34
2022-12-05T05:13:49.953Z,0.40
2022-12-05T05:16:25.267Z,0.36
2022-12-05T05:18:53.001Z,0.30
2022-12-05T05:21:22.637Z,0.33
2022-12-05T05:23:50.111Z,0.37
2022-12-05T05:26:17.227Z,0.25
2022-12-05T05:28:44.074Z,0.37
2022-12-05T05:31:11.067Z,0.41
2022-12-05T05:33:38.195Z,0.44
2022-12-05T05:36:07.296Z,0.43
2022-12-05T05:38:38.687Z,0.46
2022-12-05T05:41:06.191Z,0.41
2022-12-05T05:43:32.904Z,0.32
2022-12-05T05:45:59.584Z,0.33
2022-12-05T05:48:26.201Z,0.38
2022-12-05T05:50:52.840Z,0.40
2022-12-05T05:53:19.466Z,0.43
2022-12-05T05:55:46.149Z,0.43
2022-12-05T05:58:12.763Z,0.25
2022-12-05T06:00:39.417Z,0.41
2022-12-05T06:03:06.240Z,0.42
2022-12-05T06:05:33.073Z,0.42
2022-12-05T06:07:59.808Z,0.39
2022-12-05T06:10:26.490Z,0.37
2022-12-05T06:12:53.126Z,0.36
2022-12-05T06:15:19.768Z,0.33
2022-12-05T06:17:46.434Z,0.31
2022-12-05T06:20:13.475Z,0.30
2022-12-05T06:22:40.143Z,0.25
2022-12-05T06:25:07.678Z,0.28
2022-12-05T06:27:34.828Z,0.28
2022-12-05T06:30:01.608Z,0.27
2022-12-05T06:32:29.976Z,0.28
2022-12-05T06:34:56.760Z,0.30
2022-12-05T06:37:23.429Z,0.26
2022-12-05T06:39:51.469Z,0.29
2022-12-05T06:42:18.067Z,0.33
2022-12-05T06:44:44.711Z,0.32
2022-12-05T06:47:11.352Z,0.33
2022-12-05T06:49:38.409Z,0.34
2022-12-05T06:52:05.197Z,0.36
2022-12-05T06:54:31.890Z,0.36
2022-12-05T06:56:58.522Z,0.39
2022-12-05T06:59:25.218Z,0.42
2022-12-05T07:01:51.969Z,0.43
2022-12-05T07:04:24.872Z,0.46
2022-12-05T07:06:53.226Z,0.49
2022-12-05T07:09:46.002Z,0.48
2022-12-05T07:12:14.568Z,0.40
2022-12-05T07:14:49.890Z,0.48
2022-12-05T07:17:21.533Z,0.52
2022-12-05T07:19:51.994Z,0.55
2022-12-05T07:22:20.539Z,0.57
2022-12-05T07:24:48.059Z,0.51
2022-12-05T07:27:15.673Z,0.55
2022-12-05T07:29:42.398Z,0.49
2022-12-05T07:32:09.352Z,0.47
2022-12-05T07:34:36.149Z,0.47
2022-12-05T07:37:02.755Z,0.48
2022-12-05T07:39:29.495Z,0.48
2022-12-05T07:41:56.142Z,0.47
2022-12-05T07:44:22.818Z,0.59
2022-12-05T07:46:49.498Z,0.64
2022-12-05T07:49:16.325Z,0.70
2022-12-05T07:51:42.981Z,0.68
2022-12-05T07:54:09.642Z,0.73
2022-12-05T07:56:36.282Z,0.73
2022-12-05T07:59:02.964Z,0.76
2022-12-05T08:01:30.233Z,0.78
2022-12-05T08:03:58.748Z,0.78
2022-12-05T08:06:28.268Z,0.77
2022-12-05T08:08:55.943Z,0.77
2022-12-05T08:11:26.665Z,0.78
2022-12-05T08:13:53.850Z,0.67
2022-12-05T08:16:23.810Z,0.89
2022-12-05T08:18:58.367Z,0.87
2022-12-05T08:21:25.394Z,0.90
2022-12-05T08:23:53.059Z,0.94
2022-12-05T08:26:24.418Z,0.90
2022-12-05T08:28:53.364Z,0.99
2022-12-05T08:31:24.297Z,1.02
2022-12-05T08:33:57.189Z,1.06
2022-12-05T08:36:27.121Z,1.16
2022-12-05T08:39:02.002Z,1.10
2022-12-05T08:41:30.266Z,1.18
2022-12-05T08:43:58.978Z,1.27
2022-12-05T08:46:26.065Z,1.43
2022-12-05T08:48:52.847Z,1.46
2022-12-05T08:51:19.557Z,1.45
2022-12-05T08:53:46.316Z,1.37
2022-12-05T08:56:13.393Z,1.51
2022-12-05T08:58:41.157Z,1.50
2022-12-05T09:01:20.383Z,1.52
2022-12-05T09:03:48.376Z,1.47
2022-12-05T09:06:16.251Z,1.46
2022-12-05T09:08:44.268Z,1.45
2022-12-05T09:11:13.300Z,1.50
2022-12-05T09:13:40.948Z,1.52
2022-12-05T09:16:13.750Z,1.54
2022-12-05T09:18:40.630Z,1.52
2022-12-05T09:21:09.408Z,1.55
2022-12-05T09:23:37.996Z,1.55
2022-12-05T09:26:06.398Z,1.63
2022-12-05T09:28:34.096Z,1.70
2022-12-05T09:31:04.173Z,1.69
2022-12-05T09:33:32.824Z,1.76
2022-12-05T09:35:59.646Z,1.68
2022-12-05T09:38:26.270Z,1.69
2022-12-05T09:41:45.164Z,1.74
2022-12-05T09:44:24.334Z,1.76
2022-12-05T09:47:05.849Z,1.85
2022-12-05T09:49:34.877Z,1.88
2022-12-05T09:52:03.786Z,1.85
2022-12-05T09:54:32.729Z,1.92
2022-12-05T09:57:00.085Z,2.02
2022-12-05T09:59:26.782Z,2.02
2022-12-05T10:02:07.379Z,2.07
2022-12-05T10:04:46.347Z,2.11
2022-12-05T10:07:12.954Z,2.12
2022-12-05T10:10:20.306Z,2.12
2022-12-05T10:13:03.084Z,2.04
2022-12-05T10:15:35.504Z,2.12
2022-12-05T10:18:07.989Z,2.15
2022-12-05T10:20:46.991Z,2.13
2022-12-05T10:23:56.000Z,2.14
2022-12-05T10:26:17.053Z,2.15
2022-12-05T10:29:09.395Z,2.23
2022-12-05T10:31:38.486Z,2.35
2022-12-05T10:34:17.504Z,2.37
2022-12-05T10:37:05.551Z,2.49
2022-12-05T10:39:32.215Z,2.41
2022-12-05T10:41:59.440Z,2.34
2022-12-05T10:44:26.215Z,2.31
2022-12-05T10:46:52.954Z,2.32
2022-12-05T10:49:21.106Z,2.28
2022-12-05T10:51:49.144Z,2.44
2022-12-05T10:54:22.333Z,2.55
2022-12-05T10:56:51.023Z,2.59
2022-12-05T10:59:20.440Z,2.66
2022-12-05T11:01:52.399Z,2.74
2022-12-05T11:04:28.621Z,2.78
2022-12-05T11:07:05.820Z,2.81
2022-12-05T11:09:35.951Z,2.85
2022-12-05T11:12:14.673Z,2.82
2022-12-05T11:14:54.263Z,2.74
2022-12-05T11:17:38.782Z,2.69
2022-12-05T11:20:17.667Z,2.70
2022-12-05T11:22:48.886Z,2.68
2022-12-05T11:25:36.626Z,2.72
2022-12-05T11:28:21.785Z,2.76
2022-12-05T11:31:06.901Z,2.81
2022-12-05T11:33:35.937Z,2.87
2022-12-05T11:36:19.457Z,2.84
2022-12-05T11:38:46.786Z,2.75
2022-12-05T11:41:36.251Z,2.84
2022-12-05T11:44:18.091Z,2.85
2022-12-05T11:47:23.812Z,2.84
2022-12-05T11:50:09.002Z,2.89
2022-12-05T11:53:09.816Z,2.92
2022-12-05T11:55:47.218Z,2.96
2022-12-05T11:58:41.999Z,2.99
2022-12-05T12:01:25.660Z,3.00
2022-12-05T12:04:24.154Z,2.99
2022-12-05T12:07:06.666Z,3.07
2022-12-05T12:09:42.365Z,3.10
2022-12-05T12:12:33.254Z,3.15
2022-12-05T12:15:24.975Z,3.29
2022-12-05T12:18:08.536Z,3.31
2022-12-05T12:20:42.136Z,3.26
2022-12-05T12:23:49.616Z,3.25
2022-12-05T12:26:38.650Z,3.16
2022-12-05T12:29:18.940Z,3.12
2022-12-05T12:32:04.595Z,3.07
2022-12-05T12:34:40.316Z,3.08
2022-12-05T12:37:38.957Z,3.10
2022-12-05T12:40:31.972Z,3.18
2022-12-05T12:43:30.961Z,3.09
2022-12-05T12:46:19.048Z,3.19
2022-12-05T12:49:07.523Z,3.20
2022-12-05T12:51:34.612Z,3.11
2022-12-05T12:54:10.374Z,3.10
2022-12-05T12:57:08.169Z,3.07
2022-12-05T12:59:51.008Z,3.08
2022-12-05T13:02:35.435Z,3.08
2022-12-05T13:05:08.616Z,3.06
2022-12-05T13:07:48.971Z,3.18
2022-12-05T13:10:35.990Z,3.29
2022-12-05T13:13:05.065Z,3.43
2022-12-05T13:15:36.157Z,3.55
2022-12-05T13:18:06.314Z,3.64
2022-12-05T13:20:35.877Z,3.72
2022-12-05T13:23:07.932Z,3.76
2022-12-05T13:25:36.334Z,3.80
2022-12-05T13:28:25.923Z,3.78
2022-12-05T13:31:01.718Z,3.87
2022-12-05T13:33:50.216Z,3.92
2022-12-05T13:36:41.075Z,3.73
2022-12-05T13:39:39.425Z,3.64
2022-12-05T13:42:21.080Z,3.67
2022-12-05T13:45:05.911Z,3.59
2022-12-05T13:47:35.306Z,3.59
2022-12-05T13:50:16.034Z,3.62
2022-12-05T13:52:49.502Z,3.58
2022-12-05T13:55:56.177Z,3.65
2022-12-05T13:58:22.739Z,3.69
2022-12-05T14:00:53.126Z,3.81
2022-12-05T14:03:35.061Z,4.10
2022-12-05T14:06:01.719Z,4.09
2022-12-05T14:08:31.626Z,3.99
2022-12-05T14:10:58.214Z,3.98
2022-12-05T14:13:25.420Z,3.86
2022-12-05T14:15:54.640Z,3.77
2022-12-05T14:18:46.131Z,3.67
2022-12-05T14:21:37.395Z,3.68
2022-12-05T14:24:23.041Z,3.67
2022-12-05T14:27:07.551Z,3.59
2022-12-05T14:29:59.594Z,3.60
2022-12-05T14:32:38.908Z,3.44
2022-12-05T14:35:15.586Z,3.44
2022-12-05T14:37:54.415Z,3.37
2022-12-05T14:40:36.811Z,3.30
2022-12-05T14:43:22.399Z,3.29
2022-12-05T14:45:51.915Z,3.23
2022-12-05T14:48:30.912Z,3.16
2022-12-05T14:50:59.086Z,3.10
2022-12-05T14:53:33.929Z,3.08
2022-12-05T14:56:00.585Z,3.04
2022-12-05T14:58:56.965Z,3.01
2022-12-05T15:01:44.534Z,2.93
2022-12-05T15:04:33.273Z,2.90
2022-12-05T15:07:05.502Z,2.81
2022-12-05T15:09:49.428Z,2.78
2022-12-05T15:12:41.973Z,2.73
2022-12-05T15:15:34.920Z,2.74
2022-12-05T15:18:31.251Z,2.79
2022-12-05T15:21:04.053Z,2.78
2022-12-05T15:23:47.019Z,2.83
2022-12-05T15:26:44.777Z,2.87
2022-12-05T15:29:14.881Z,2.86
2022-12-05T15:31:47.713Z,2.85
2022-12-05T15:34:36.211Z,2.89
2022-12-05T15:37:12.754Z,2.87
2022-12-05T15:39:52.683Z,2.83
2022-12-05T15:42:24.822Z,2.80
2022-12-05T15:45:20.086Z,2.70
2022-12-05T15:47:49.311Z,2.69
2022-12-05T15:50:39.089Z,2.63
2022-12-05T15:53:14.308Z,2.59
2022-12-05T15:55:47.286Z,2.56
2022-12-05T15:58:39.210Z,2.55
2022-12-05T16:01:20.460Z,2.53
2022-12-05T16:03:55.564Z,2.55
2022-12-05T16:06:38.086Z,2.58
2022-12-05T16:09:14.257Z,2.56
2022-12-05T16:11:51.365Z,2.59
2022-12-05T16:14:37.276Z,2.58
2022-12-05T16:17:07.326Z,2.57
2022-12-05T16:19:34.176Z,2.52
2022-12-05T16:22:20.841Z,2.47
2022-12-05T16:24:55.416Z,2.46
2022-12-05T16:27:28.806Z,2.46
2022-12-05T16:30:14.451Z,2.50
2022-12-05T16:32:42.152Z,2.51
2022-12-05T16:35:32.503Z,2.53
2022-12-05T16:38:32.675Z,2.51
2022-12-05T16:41:09.142Z,2.52
2022-12-05T16:43:35.827Z,2.55
2022-12-05T16:46:11.843Z,2.52
2022-12-05T16:48:47.570Z,2.45
2022-12-05T16:51:14.380Z,2.46
2022-12-05T16:53:52.326Z,2.43
2022-12-05T16:56:27.920Z,2.40
2022-12-05T16:58:54.606Z,2.41
2022-12-05T17:01:24.035Z,2.44
2022-12-05T17:03:51.346Z,2.47
2022-12-05T17:06:27.093Z,2.45
2022-12-05T17:08:54.984Z,2.49
2022-12-05T17:11:28.231Z,2.51
2022-12-05T17:13:56.849Z,2.52
2022-12-05T17:16:23.664Z,2.51
2022-12-05T17:18:50.373Z,2.50
2022-12-05T17:21:19.964Z,2.45
2022-12-05T17:23:48.544Z,2.43
2022-12-05T17:26:17.879Z,2.47
2022-12-05T17:28:44.978Z,2.46
2022-12-05T17:31:23.079Z,2.48
2022-12-05T17:33:51.645Z,2.49
2022-12-05T17:36:21.072Z,2.51
2022-12-05T17:38:48.095Z,2.49
2022-12-05T17:41:17.499Z,2.46
2022-12-05T17:43:45.914Z,2.60
2022-12-05T17:46:17.166Z,2.62
2022-12-05T17:48:43.819Z,2.56
2022-12-05T17:51:14.621Z,2.52
2022-12-05T17:53:42.872Z,2.42
2022-12-05T17:56:09.568Z,2.37
2022-12-05T17:58:36.434Z,2.39
2022-12-05T18:01:03.977Z,2.36
2022-12-05T18:03:30.699Z,2.34
2022-12-05T18:05:57.550Z,2.34
2022-12-05T18:08:24.763Z,2.33
2022-12-05T18:10:51.819Z,2.35
2022-12-05T18:13:18.645Z,2.38
2022-12-05T18:15:48.054Z,2.37
2022-12-05T18:18:17.729Z,2.41
2022-12-05T18:20:44.463Z,2.41
2022-12-05T18:23:11.555Z,2.34
2022-12-05T18:25:39.234Z,2.34
2022-12-05T18:28:05.971Z,2.32
2022-12-05T18:30:32.796Z,2.30
2022-12-05T18:32:59.534Z,2.28
2022-12-05T18:35:41.560Z,2.29
2022-12-05T18:38:10.546Z,2.25
2022-12-05T18:40:37.541Z,2.21
2022-12-05T18:43:04.433Z,2.22
2022-12-05T18:45:31.181Z,2.19
2022-12-05T18:48:09.957Z,2.16
2022-12-05T18:50:44.939Z,2.14
2022-12-05T18:53:11.554Z,2.14
2022-12-05T18:55:58.346Z,2.15
2022-12-05T18:58:24.784Z,2.10
2022-12-05T19:00:51.506Z,2.13
2022-12-05T19:03:18.225Z,2.10
2022-12-05T19:05:44.878Z,2.06
2022-12-05T19:08:11.585Z,2.03
2022-12-05T19:10:38.328Z,1.97
2022-12-05T19:13:04.972Z,1.98
2022-12-05T19:15:31.691Z,1.99
2022-12-05T19:17:58.349Z,2.02
2022-12-05T19:20:24.988Z,2.02
2022-12-05T19:22:54.132Z,2.02
2022-12-05T19:25:23.041Z,2.02
2022-12-05T19:27:49.706Z,1.99
2022-12-05T19:30:16.475Z,1.99
2022-12-05T19:32:43.222Z,1.97
2022-12-05T19:35:10.329Z,1.97
2022-12-05T19:37:37.023Z,1.97
2022-12-05T19:40:03.902Z,1.99
2022-12-05T19:42:31.136Z,2.02
2022-12-05T19:44:58.645Z,2.01
2022-12-05T19:47:27.676Z,1.99
2022-12-05T19:49:54.345Z,1.99
2022-12-05T19:52:21.150Z,1.98
2022-12-05T19:54:47.882Z,2.00
2022-12-05T19:57:14.609Z,2.01
2022-12-05T19:59:41.221Z,2.04
2022-12-05T20:02:08.001Z,2.05
2022-12-05T20:04:34.869Z,2.01
2022-12-05T20:07:01.504Z,2.01
2022-12-05T20:09:28.188Z,1.96
2022-12-05T20:11:56.019Z,1.94
2022-12-05T20:14:24.876Z,1.98
2022-12-05T20:16:52.452Z,1.97
2022-12-05T20:19:19.189Z,1.99
2022-12-05T20:21:45.832Z,2.00
2022-12-05T20:24:12.533Z,2.02
2022-12-05T20:26:42.274Z,1.99
2022-12-05T20:29:10.215Z,1.98
2022-12-05T20:31:42.238Z,1.97
2022-12-05T20:34:13.335Z,1.95
2022-12-05T20:36:40.025Z,1.96
2022-12-05T20:39:10.443Z,1.97
2022-12-05T20:41:37.163Z,1.96
2022-12-05T20:44:08.559Z,1.98
2022-12-05T20:46:36.942Z,1.96
2022-12-05T20:49:04.044Z,1.98
2022-12-05T20:51:33.963Z,1.94
2022-12-05T20:54:03.281Z,1.97
2022-12-05T20:56:32.181Z,1.99
2022-12-05T20:59:02.029Z,2.01
2022-12-05T21:01:31.287Z,2.02
2022-12-05T21:03:58.270Z,2.01
2022-12-05T21:06:30.549Z,2.03
2022-12-05T21:08:58.981Z,2.02
2022-12-05T21:11:27.599Z,2.02
2022-12-05T21:14:00.278Z,2.03
2022-12-05T21:16:27.565Z,2.04
2022-12-05T21:18:56.015Z,2.04
2022-12-05T21:21:24.866Z,2.04
2022-12-05T21:23:55.494Z,2.03
2022-12-05T21:26:24.100Z,2.00
2022-12-05T21:28:51.489Z,1.98
2022-12-05T21:31:21.646Z,1.96
2022-12-05T21:33:54.470Z,1.85
2022-12-05T21:36:22.829Z,1.74
2022-12-05T21:38:54.133Z,1.63
2022-12-05T21:41:22.876Z,1.57
2022-12-05T21:43:54.136Z,1.54
2022-12-05T21:46:21.729Z,1.52
2022-12-05T21:48:48.494Z,1.50
2022-12-05T21:51:15.286Z,1.45
2022-12-05T21:53:42.132Z,1.41
2022-12-05T21:56:11.597Z,1.43
2022-12-05T21:58:42.272Z,1.42
2022-12-05T22:01:10.908Z,1.45
2022-12-05T22:03:38.317Z,1.45
2022-12-05T22:06:10.155Z,1.47
2022-12-05T22:08:38.301Z,1.42
2022-12-05T22:11:05.892Z,1.40
2022-12-05T22:13:33.235Z,1.40
2022-12-05T22:16:00.477Z,1.36
2022-12-05T22:18:28.216Z,1.32
2022-12-05T22:20:59.975Z,1.24
2022-12-05T22:23:27.259Z,1.21
2022-12-05T22:25:58.012Z,1.18
2022-12-05T22:28:24.667Z,1.13
2022-12-05T22:30:51.460Z,1.10
2022-12-05T22:33:18.117Z,1.05
2022-12-05T22:35:50.761Z,0.99
2022-12-05T22:38:19.034Z,0.93
2022-12-05T22:40:46.111Z,0.92
2022-12-05T22:43:12.921Z,0.92
2022-12-05T22:45:39.611Z,0.90
2022-12-05T22:48:06.346Z,0.91
2022-12-05T22:50:32.977Z,0.88
2022-12-05T22:52:59.704Z,0.88
2022-12-05T22:55:26.334Z,0.88
2022-12-05T22:57:52.951Z,0.87
2022-12-05T23:00:20.212Z,0.88
2022-12-05T23:02:47.028Z,0.90
2022-12-05T23:05:13.950Z,0.90
2022-12-05T23:07:40.749Z,0.91
2022-12-05T23:10:08.086Z,0.91
2022-12-05T23:12:34.807Z,0.94
2022-12-05T23:15:01.521Z,0.99
2022-12-05T23:17:29.618Z,1.04
2022-12-05T23:19:56.454Z,1.10
2022-12-05T23:22:23.338Z,1.14
2022-12-05T23:24:50.050Z,1.20
2022-12-05T23:27:19.721Z,1.27
2022-12-05T23:29:46.526Z,1.33
2022-12-05T23:32:13.449Z,1.28
2022-12-05T23:34:40.180Z,1.25
2022-12-05T23:37:06.900Z,1.09
2022-12-05T23:39:33.744Z,0.96
2022-12-05T23:42:00.508Z,0.89
2022-12-05T23:44:27.305Z,0.88
2022-12-05T23:46:54.894Z,0.94
2022-12-05T23:49:21.616Z,0.97
2022-12-05T23:51:49.656Z,0.97
2022-12-05T23:54:16.568Z,0.93
2022-12-05T23:56:43.281Z,0.94
2022-12-05T23:59:10.047Z,0.98
